GWW weather

Goldsboro-Wayne Municipal Airport
Goldsboro, North Carolina, United States

Public forecast

Using degrees Fahrenheit for public forecast. Weather courtesy of forecast.io.

METAR (pilot weather report)

Retrieved 2019/06/16 13:25 UTC (29 minutes ago):

KGWW 161325Z AUTO 21013KT 10SM CLR 25/22 A3009 RMK AO2 T02450218

TAF (pilot weather forecast)

Forecast is more than 12 hours old.

Closest forecast is Seymour Johnson Air Force Base, 7.3 nm (13.5 km) S. Retrieved 2019/06/14 20:00 UTC (2 days ago):

TAF KGSB 142000Z 1420/1602 26008KT 9999 SKC QNH3011INS WND VRB04KT AFT 1500 TX26/1421Z TN13/1510Z LAST NO AMDS AFT 1420 NEXT 1620